Overview Statistics Trail Chart Weather Telemetry Raw packets
 

This is the latest recevied weather packets stored in our database for station/object KN6WGU. If no packets are shown the sender has not sent any weather packets the latest 10 day(s).

<< 21 22 23 24 25 26 27 >>
Time Temp. Humidity Pressure Rain* Wind** Luminosity Snow
1788468885 28.89° C 72% 1006.6 hPa 0 mm - 20 W/m² -
1788468579 28.89° C 72% 1006.3 hPa 0 mm - 24 W/m² -
1788468276 29.44° C 70% 1006.1 hPa 0 mm - 32 W/m² -
1788467971 29.44° C 71% 1005.8 hPa 0 mm - 47 W/m² -
1788467666 30° C 71% 1005.6 hPa 0 mm - 76 W/m² -
1788467366 30° C 69% 1005.7 hPa 0 mm - 115 W/m² -
1788467074 30.56° C 67% 1006 hPa 0 mm - 160 W/m² -
1788466761 31.11° C 66% 1006 hPa 0 mm - 201 W/m² -
1788466457 31.11° C 65% 1005.9 hPa 0 mm - 279 W/m² -
1788466155 31.11° C 65% 1005.7 hPa 0 mm - 400 W/m² -
1788465850 31.11° C 65% 1005.9 hPa 0 mm - 535 W/m² -
1788465242 29.44° C 70% 1006 hPa 0 mm - 147 W/m² -
1788464935 30° C 69% 1006.3 hPa 0 mm - 98 W/m² -
1788464631 31.11° C 70% 1006.3 hPa 0 mm - 109 W/m² -
1788464327 32.22° C 68% 1006.3 hPa 0 mm - 227 W/m² -
1788464023 32.78° C 68% 1006.5 hPa 0 mm - 515 W/m² -
1788463718 32.78° C 69% 1006.5 hPa 0 mm - 519 W/m² -
1788463414 31.67° C 71% 1006.6 hPa 0 mm - 505 W/m² -
1788463105 31.11° C 73% 1006.8 hPa 0 mm - 481 W/m² -
1788462800 30.56° C 73% 1006.7 hPa 0 mm - 377 W/m² -
1788462499 30.56° C 74% 1007 hPa 0 mm - 273 W/m² -
1788462195 30.56° C 75% 1007.2 hPa 0 mm - 315 W/m² -
1788461894 31.11° C 71% 1007.3 hPa 0 mm - 154 W/m² -
1788461589 30.56° C 73% 1007.1 hPa 0 mm - 557 W/m² -
1788461286 31.67° C 71% 1007.3 hPa 0 mm - 358 W/m² -

* Rain latest hour (hover to see other rain measurements)
** Current wind speed in m/s (hover to see current wind gust speed)